This is the latest recevied weather packets stored in our database for station/object IZ5MJO-13. If no packets are shown the sender has not sent any weather packets the latest 10 day(s).
| Time | Temp. | Humidity | Pressure | Rain* | Wind** | Luminosity | Snow |
|---|---|---|---|---|---|---|---|
| 1777697021 | 10.56° C | 33% | 1014.2 hPa | - | - | - | - |
| 1777696120 | 10° C | 34% | 1014.1 hPa | - | - | - | - |
| 1777695220 | 10° C | 33% | 1014.1 hPa | - | - | - | - |
| 1777694320 | 10° C | 33% | 1013.9 hPa | - | - | - | - |
| 1777693420 | 10° C | 34% | 1014.1 hPa | - | - | - | - |
| 1777693310 | 10.56° C | 32% | 1014.2 hPa | - | - | - | - |
| 1777693246 | 10.56° C | 31% | 1014.2 hPa | - | - | - | - |
| 1777692519 | 10° C | 33% | 1014.1 hPa | - | - | - | - |
| 1777691618 | 10.56° C | 32% | 1014 hPa | - | - | - | - |
| 1777690718 | 10.56° C | 32% | 1014.1 hPa | - | - | - | - |
| 1777689818 | 10.56° C | 32% | 1014.2 hPa | - | - | - | - |
| 1777688917 | 10.56° C | 31% | 1014.2 hPa | - | - | - | - |
| 1777688814 | 12.22° C | 27% | 1014 hPa | - | - | - | - |
| 1777688023 | 10.56° C | 30% | 1014.3 hPa | - | - | - | - |
| 1777687123 | 11.11° C | 31% | 1014.4 hPa | - | - | - | - |
| 1777686223 | 11.11° C | 31% | 1014.4 hPa | - | - | - | - |
| 1777685323 | 11.11° C | 30% | 1014.4 hPa | - | - | - | - |
| 1777684422 | 11.11° C | 31% | 1014.4 hPa | - | - | - | - |
| 1777683522 | 11.11° C | 30% | 1014.4 hPa | - | - | - | - |
| 1777682622 | 11.11° C | 31% | 1014.5 hPa | - | - | - | - |
| 1777681722 | 11.11° C | 30% | 1014.6 hPa | - | - | - | - |
| 1777680821 | 11.11° C | 30% | 1014.6 hPa | - | - | - | - |
| 1777679920 | 11.11° C | 31% | 1014.7 hPa | - | - | - | - |
| 1777679020 | 11.11° C | 30% | 1014.6 hPa | - | - | - | - |
| 1777678120 | 11.11° C | 29% | 1014.6 hPa | - | - | - | - |
* Rain since midnight (hover to see other rain measurements)
** Current wind speed in m/s (hover to see current wind gust speed)